createdAt,value
2018-02-19T00:00:38.750Z,6.04
2018-02-19T00:01:19.277Z,6.09
2018-02-19T00:01:59.784Z,6.15
2018-02-19T00:02:40.397Z,6.11
2018-02-19T00:03:20.829Z,6.18
2018-02-19T00:04:01.335Z,6.15
2018-02-19T00:04:41.866Z,6.17
2018-02-19T00:05:22.408Z,6.3
2018-02-19T00:06:02.948Z,6.28
2018-02-19T00:06:43.461Z,6.31
2018-02-19T00:07:23.996Z,6.21
2018-02-19T00:08:04.519Z,6.17
2018-02-19T00:08:45.046Z,6.21
2018-02-19T00:09:25.604Z,6.12
2018-02-19T00:10:06.144Z,6.17
2018-02-19T00:10:46.702Z,6.14
2018-02-19T00:11:27.227Z,6.03
2018-02-19T00:12:07.823Z,6.14
2018-02-19T00:12:48.319Z,6.21
2018-02-19T00:13:28.858Z,6.14
2018-02-19T00:14:09.393Z,5.93
2018-02-19T00:14:49.932Z,5.96
2018-02-19T00:15:30.473Z,6.08
2018-02-19T00:16:10.995Z,6.15
2018-02-19T00:16:51.504Z,6.19
2018-02-19T00:17:32.056Z,6.15
2018-02-19T00:18:12.562Z,6.08
2018-02-19T00:18:53.116Z,6.3
2018-02-19T00:19:33.642Z,6.28
2018-02-19T00:20:14.155Z,6.34
2018-02-19T00:20:54.685Z,6.34
2018-02-19T00:21:35.240Z,6.38
2018-02-19T00:22:15.769Z,6.38
2018-02-19T00:22:56.276Z,6.37
2018-02-19T00:23:36.795Z,6.34
2018-02-19T00:24:17.335Z,6.43
2018-02-19T00:24:57.859Z,6.48
2018-02-19T00:25:38.403Z,6.46
2018-02-19T00:26:18.961Z,6.48
2018-02-19T00:26:59.438Z,6.49
2018-02-19T00:27:39.963Z,6.43
2018-02-19T00:28:20.495Z,6.43
2018-02-19T00:29:00.986Z,6.48
2018-02-19T00:29:41.554Z,6.52
2018-02-19T00:30:22.061Z,6.52
2018-02-19T00:31:02.578Z,6.46
2018-02-19T00:31:43.142Z,6.46
2018-02-19T00:32:23.594Z,6.59
2018-02-19T00:33:04.091Z,6.62
2018-02-19T00:33:44.697Z,6.56
2018-02-19T00:34:25.194Z,6.49
2018-02-19T00:35:05.692Z,6.55
2018-02-19T00:35:46.256Z,6.51
2018-02-19T00:36:26.720Z,6.54
2018-02-19T00:37:07.295Z,6.55
2018-02-19T00:37:47.833Z,6.44
2018-02-19T00:38:28.351Z,6.28
2018-02-19T00:39:08.897Z,6.31
2018-02-19T00:39:49.413Z,6.3
2018-02-19T00:40:29.920Z,6.31
2018-02-19T00:41:10.454Z,6.28
2018-02-19T00:41:51.024Z,6.21
2018-02-19T00:42:31.577Z,6.4
2018-02-19T00:43:12.071Z,6.44
2018-02-19T00:43:52.585Z,6.36
2018-02-19T00:44:33.163Z,6.38
2018-02-19T00:45:13.688Z,6.49
2018-02-19T00:45:54.230Z,6.48
2018-02-19T00:46:34.755Z,6.48
2018-02-19T00:47:15.234Z,6.44
2018-02-19T00:47:55.777Z,6.44
2018-02-19T00:48:36.327Z,6.46
2018-02-19T00:49:16.825Z,6.4
2018-02-19T00:49:57.359Z,6.33
2018-02-19T00:50:37.956Z,6.34
2018-02-19T00:51:18.490Z,6.36
2018-02-19T00:51:58.992Z,6.36
2018-02-19T00:52:39.527Z,6.38
2018-02-19T00:53:20.018Z,6.51
2018-02-19T00:54:00.555Z,6.48
2018-02-19T00:54:41.087Z,6.41
2018-02-19T00:55:21.618Z,6.36
2018-02-19T00:56:02.119Z,6.36
2018-02-19T00:56:42.653Z,6.4
2018-02-19T00:57:23.196Z,6.38
2018-02-19T00:58:03.738Z,6.41
2018-02-19T00:58:44.341Z,6.44
2018-02-19T00:59:24.872Z,6.44
2018-02-19T01:00:05.442Z,6.51
2018-02-19T01:00:45.929Z,6.51
2018-02-19T01:01:26.507Z,6.52
2018-02-19T01:02:07.095Z,6.52
2018-02-19T01:02:47.613Z,6.44
2018-02-19T01:03:28.198Z,6.48
2018-02-19T01:04:08.763Z,6.4
2018-02-19T01:04:49.271Z,6.54
2018-02-19T01:05:29.783Z,6.33
2018-02-19T01:06:10.375Z,6.48
2018-02-19T01:06:50.900Z,6.44
2018-02-19T01:07:31.437Z,6.48
2018-02-19T01:08:11.971Z,6.56
2018-02-19T01:08:52.539Z,6.49
2018-02-19T01:09:33.033Z,6.56
2018-02-19T01:10:13.584Z,6.56
2018-02-19T01:10:54.273Z,6.56
2018-02-19T01:11:34.809Z,6.61
2018-02-19T01:12:15.374Z,6.38
2018-02-19T01:12:55.895Z,6.41
2018-02-19T01:13:36.500Z,6.31
2018-02-19T01:14:17.004Z,6.44
2018-02-19T01:14:57.542Z,6.36
2018-02-19T01:15:38.139Z,6.49
2018-02-19T01:16:18.694Z,6.34
2018-02-19T01:16:59.188Z,6.31
2018-02-19T01:17:39.747Z,6.44
2018-02-19T01:18:20.303Z,6.46
2018-02-19T01:19:00.873Z,6.67
2018-02-19T01:19:41.437Z,6.59
2018-02-19T01:20:21.966Z,6.64
2018-02-19T01:21:02.535Z,6.55
2018-02-19T01:21:43.087Z,6.52
2018-02-19T01:22:23.635Z,6.48
2018-02-19T01:23:04.214Z,6.59
2018-02-19T01:23:44.719Z,6.66
2018-02-19T01:24:25.419Z,6.64
2018-02-19T01:25:05.963Z,6.66
2018-02-19T01:25:46.467Z,6.49
2018-02-19T01:26:27.008Z,6.54
2018-02-19T01:27:07.576Z,6.61
2018-02-19T01:27:48.095Z,6.48
2018-02-19T01:28:28.620Z,6.31
2018-02-19T01:29:09.159Z,6.43
2018-02-19T01:29:49.712Z,6.48
2018-02-19T01:30:30.292Z,6.44
2018-02-19T01:31:10.840Z,6.46
2018-02-19T01:31:51.342Z,6.58
2018-02-19T01:32:31.961Z,6.61
2018-02-19T01:33:12.491Z,6.56
2018-02-19T01:33:53.015Z,6.66
2018-02-19T01:34:33.538Z,6.61
2018-02-19T01:35:14.052Z,6.56
2018-02-19T01:35:54.573Z,6.67
2018-02-19T01:36:35.155Z,6.69
2018-02-19T01:37:15.689Z,6.71
2018-02-19T01:37:56.209Z,6.64
2018-02-19T01:38:36.743Z,6.7
2018-02-19T01:39:17.295Z,6.7
2018-02-19T01:39:57.850Z,6.58
2018-02-19T01:40:38.390Z,6.66
2018-02-19T01:41:18.926Z,6.59
2018-02-19T01:41:59.489Z,6.73
2018-02-19T01:42:40.070Z,6.62
2018-02-19T01:43:20.632Z,6.64
2018-02-19T01:44:01.173Z,6.62
2018-02-19T01:44:41.721Z,6.71
2018-02-19T01:45:22.240Z,6.64
2018-02-19T01:46:02.762Z,6.52
2018-02-19T01:46:43.327Z,6.49
2018-02-19T01:47:23.880Z,6.48
2018-02-19T01:48:04.421Z,6.51
2018-02-19T01:48:44.950Z,6.55
2018-02-19T01:49:25.438Z,6.55
2018-02-19T01:50:06.002Z,6.61
2018-02-19T01:50:46.511Z,6.62
2018-02-19T01:51:27.065Z,6.51
2018-02-19T01:52:07.588Z,6.66
2018-02-19T01:52:48.303Z,6.74
2018-02-19T01:53:29.013Z,6.71
2018-02-19T01:54:09.592Z,6.69
2018-02-19T01:54:50.148Z,6.66
2018-02-19T01:55:30.706Z,6.67
2018-02-19T01:56:11.256Z,6.64
2018-02-19T01:56:51.750Z,6.69
2018-02-19T01:57:32.296Z,6.79
2018-02-19T01:58:12.783Z,6.71
2018-02-19T01:58:53.302Z,6.73
2018-02-19T01:59:33.981Z,6.77
2018-02-19T02:00:15.102Z,6.8
2018-02-19T02:00:55.692Z,6.74
2018-02-19T02:01:36.194Z,6.77
2018-02-19T02:02:16.866Z,6.79
2018-02-19T02:02:57.445Z,6.74
2018-02-19T02:03:37.983Z,6.8
2018-02-19T02:04:18.514Z,6.77
2018-02-19T02:04:59.078Z,6.73
2018-02-19T02:05:39.752Z,6.74
2018-02-19T02:06:20.328Z,6.59
2018-02-19T02:07:00.812Z,6.64
2018-02-19T02:07:41.354Z,6.58
2018-02-19T02:08:21.971Z,6.61
2018-02-19T02:09:02.467Z,6.62
2018-02-19T02:09:43.054Z,6.52
2018-02-19T02:10:23.528Z,6.56
2018-02-19T02:11:04.178Z,6.67
2018-02-19T02:11:44.659Z,6.62
2018-02-19T02:12:25.228Z,6.59
2018-02-19T02:13:06.071Z,6.56
2018-02-19T02:13:46.783Z,6.59
2018-02-19T02:14:27.332Z,6.64
2018-02-19T02:15:07.891Z,6.67
2018-02-19T02:15:48.727Z,6.69
2018-02-19T02:16:29.255Z,6.7
2018-02-19T02:17:09.815Z,6.62
2018-02-19T02:17:50.348Z,6.69
2018-02-19T02:18:30.913Z,6.7
2018-02-19T02:19:11.745Z,6.7
2018-02-19T02:19:52.428Z,6.77
2018-02-19T02:20:32.937Z,6.73
2018-02-19T02:21:13.532Z,6.74
2018-02-19T02:21:54.129Z,6.79
2018-02-19T02:22:34.703Z,6.67
2018-02-19T02:23:15.263Z,6.73
2018-02-19T02:23:55.939Z,6.73
2018-02-19T02:24:37.010Z,6.77
2018-02-19T02:25:17.922Z,6.67
2018-02-19T02:25:58.478Z,6.69
2018-02-19T02:26:39.015Z,6.61
2018-02-19T02:27:19.681Z,6.77
2018-02-19T02:28:00.191Z,6.74
2018-02-19T02:28:40.732Z,6.73
2018-02-19T02:29:21.257Z,6.84
2018-02-19T02:30:02.094Z,6.77
2018-02-19T02:30:42.652Z,6.8
2018-02-19T02:31:23.799Z,6.74
2018-02-19T02:32:04.166Z,6.62
2018-02-19T02:32:44.744Z,6.71
2018-02-19T02:33:25.327Z,6.76
2018-02-19T02:34:05.874Z,6.73
2018-02-19T02:34:46.356Z,6.79
2018-02-19T02:35:26.920Z,6.77
2018-02-19T02:36:07.711Z,6.7
2018-02-19T02:36:48.341Z,6.66
2018-02-19T02:37:28.952Z,6.67
2018-02-19T02:38:09.425Z,6.79
2018-02-19T02:38:49.936Z,6.66
2018-02-19T02:39:30.630Z,6.67
2018-02-19T02:40:11.616Z,6.7
2018-02-19T02:40:51.958Z,6.73
2018-02-19T02:41:32.514Z,6.71
2018-02-19T02:42:13.083Z,6.71
2018-02-19T02:42:53.806Z,6.81
2018-02-19T02:43:34.112Z,6.76
2018-02-19T02:44:14.653Z,6.71
2018-02-19T02:44:55.207Z,6.64
2018-02-19T02:45:35.867Z,6.69
2018-02-19T02:46:16.268Z,6.67
2018-02-19T02:46:56.889Z,6.64
2018-02-19T02:47:37.738Z,6.69
2018-02-19T02:48:18.287Z,6.61
2018-02-19T02:48:58.825Z,6.76
2018-02-19T02:49:39.413Z,6.74
2018-02-19T02:50:19.964Z,6.87
2018-02-19T02:51:00.486Z,6.79
2018-02-19T02:51:41.184Z,6.8
2018-02-19T02:52:21.706Z,6.81
2018-02-19T02:53:02.364Z,6.85
2018-02-19T02:53:42.847Z,6.74
2018-02-19T02:54:23.561Z,6.77
2018-02-19T02:55:04.000Z,6.76
2018-02-19T02:55:44.648Z,6.77
2018-02-19T02:56:25.295Z,6.81
2018-02-19T02:57:06.075Z,6.8
2018-02-19T02:57:46.417Z,6.71
2018-02-19T02:58:27.075Z,6.74
2018-02-19T02:59:07.641Z,6.73
2018-02-19T02:59:48.170Z,6.73
2018-02-19T03:00:28.679Z,6.66
2018-02-19T03:01:09.273Z,6.71
2018-02-19T03:01:49.850Z,6.71
2018-02-19T03:02:30.378Z,6.69
2018-02-19T03:03:10.968Z,6.76
2018-02-19T03:03:51.518Z,6.8
2018-02-19T03:04:32.197Z,6.8
2018-02-19T03:05:12.779Z,6.74
2018-02-19T03:05:53.707Z,6.64
2018-02-19T03:06:33.960Z,6.74
2018-02-19T03:07:14.570Z,6.73
2018-02-19T03:07:55.112Z,6.81
2018-02-19T03:08:35.894Z,6.73
2018-02-19T03:09:16.209Z,6.8
2018-02-19T03:09:56.779Z,6.88
2018-02-19T03:10:37.299Z,6.77
2018-02-19T03:11:18.122Z,6.79
2018-02-19T03:11:58.467Z,6.8
2018-02-19T03:12:39.009Z,6.87
2018-02-19T03:13:19.511Z,6.79
2018-02-19T03:14:00.232Z,6.84
2018-02-19T03:14:41.245Z,6.88
2018-02-19T03:15:21.745Z,6.87
2018-02-19T03:16:02.302Z,6.81
2018-02-19T03:16:43.026Z,6.8
2018-02-19T03:17:23.925Z,6.73
2018-02-19T03:18:04.165Z,6.7
2018-02-19T03:18:44.673Z,6.7
2018-02-19T03:19:25.261Z,6.79
2018-02-19T03:20:05.858Z,6.76
2018-02-19T03:20:46.387Z,6.76
2018-02-19T03:21:26.915Z,6.77
2018-02-19T03:22:07.556Z,6.79
2018-02-19T03:22:48.588Z,6.8
2018-02-19T03:23:29.226Z,6.66
2018-02-19T03:24:09.788Z,6.8
2018-02-19T03:24:50.399Z,6.73
2018-02-19T03:25:31.002Z,6.8
2018-02-19T03:26:11.513Z,6.79
2018-02-19T03:26:52.069Z,6.76
2018-02-19T03:27:32.616Z,6.73
2018-02-19T03:28:13.265Z,6.79
2018-02-19T03:28:53.670Z,6.76
2018-02-19T03:29:34.183Z,6.77
2018-02-19T03:30:14.779Z,6.66
2018-02-19T03:30:55.333Z,6.8
2018-02-19T03:31:35.844Z,6.74
2018-02-19T03:32:16.397Z,6.73
2018-02-19T03:32:58.104Z,6.74
2018-02-19T03:33:39.090Z,6.76
2018-02-19T03:34:19.640Z,6.81
2018-02-19T03:35:00.174Z,6.74
2018-02-19T03:35:40.735Z,6.74
2018-02-19T03:36:21.300Z,6.77
2018-02-19T03:37:02.031Z,6.81
2018-02-19T03:37:42.792Z,6.84
2018-02-19T03:38:23.361Z,6.77
2018-02-19T03:39:03.887Z,6.74
2018-02-19T03:39:44.421Z,6.76
2018-02-19T03:40:24.968Z,6.69
2018-02-19T03:41:05.613Z,6.79
2018-02-19T03:41:46.200Z,6.87
2018-02-19T03:42:27.226Z,6.91
2018-02-19T03:43:07.685Z,6.98
2018-02-19T03:43:48.434Z,6.8
2018-02-19T03:44:28.919Z,6.79
2018-02-19T03:45:09.486Z,6.84
2018-02-19T03:45:49.993Z,6.85
2018-02-19T03:46:30.507Z,6.87
2018-02-19T03:47:11.721Z,6.92
2018-02-19T03:47:52.707Z,6.91
2018-02-19T03:48:33.314Z,6.81
2018-02-19T03:49:13.834Z,6.87
2018-02-19T03:49:54.403Z,6.81
2018-02-19T03:50:34.920Z,6.76
2018-02-19T03:51:15.453Z,6.79
2018-02-19T03:51:56.287Z,6.85
2018-02-19T03:52:36.820Z,6.85
2018-02-19T03:53:17.480Z,6.74
2018-02-19T03:53:58.346Z,6.85
2018-02-19T03:54:38.729Z,6.77
2018-02-19T03:55:19.422Z,6.74
2018-02-19T03:56:00.031Z,6.74
2018-02-19T03:56:40.479Z,6.76
2018-02-19T03:57:21.717Z,6.79
2018-02-19T03:58:02.382Z,6.69
2018-02-19T03:58:42.888Z,6.79
2018-02-19T03:59:23.398Z,6.8
2018-02-19T04:00:03.919Z,6.67
2018-02-19T04:00:44.432Z,6.76
2018-02-19T04:01:24.949Z,6.77
2018-02-19T04:02:05.473Z,6.76
2018-02-19T04:02:47.391Z,6.79
2018-02-19T04:03:27.958Z,6.87
2018-02-19T04:04:08.487Z,6.8
2018-02-19T04:04:49.038Z,6.8
2018-02-19T04:05:29.570Z,6.76
2018-02-19T04:06:10.098Z,6.71
2018-02-19T04:06:50.638Z,6.77
2018-02-19T04:07:31.171Z,6.84
2018-02-19T04:08:11.685Z,6.88
2018-02-19T04:08:52.266Z,6.84
2018-02-19T04:09:32.770Z,6.77
2018-02-19T04:10:13.351Z,6.88
2018-02-19T04:10:53.901Z,6.79
2018-02-19T04:11:34.463Z,6.61
2018-02-19T04:12:15.032Z,6.74
2018-02-19T04:12:55.531Z,6.71
2018-02-19T04:13:36.046Z,6.7
2018-02-19T04:14:16.637Z,6.69
2018-02-19T04:14:57.221Z,6.71
2018-02-19T04:15:37.899Z,6.71
2018-02-19T04:16:18.406Z,6.8
2018-02-19T04:16:58.967Z,6.76
2018-02-19T04:17:39.489Z,6.77
2018-02-19T04:18:20.003Z,6.87
2018-02-19T04:19:00.585Z,6.8
2018-02-19T04:19:41.134Z,6.98
2018-02-19T04:20:21.658Z,6.95
2018-02-19T04:21:02.159Z,7.03
2018-02-19T04:21:42.712Z,6.84
2018-02-19T04:22:23.255Z,6.77
2018-02-19T04:23:03.759Z,6.8
2018-02-19T04:23:44.292Z,6.85
2018-02-19T04:24:24.851Z,6.76
2018-02-19T04:25:05.365Z,6.81
2018-02-19T04:25:45.895Z,6.76
2018-02-19T04:26:26.443Z,6.74
2018-02-19T04:27:06.975Z,6.79
2018-02-19T04:27:47.498Z,6.59
2018-02-19T04:28:28.089Z,6.59
2018-02-19T04:29:08.829Z,6.76
2018-02-19T04:29:49.194Z,6.74
2018-02-19T04:30:29.742Z,6.67
2018-02-19T04:31:10.276Z,6.64
2018-02-19T04:31:50.835Z,6.54
2018-02-19T04:32:31.447Z,6.7
2018-02-19T04:33:11.996Z,6.58
2018-02-19T04:33:52.501Z,6.58
2018-02-19T04:34:33.078Z,6.64
2018-02-19T04:35:13.607Z,6.61
2018-02-19T04:35:54.112Z,6.66
2018-02-19T04:36:34.676Z,6.71
2018-02-19T04:37:15.215Z,6.61
2018-02-19T04:37:55.729Z,6.55
2018-02-19T04:38:36.280Z,6.56
2018-02-19T04:39:16.812Z,6.56
2018-02-19T04:39:57.385Z,6.66
2018-02-19T04:40:37.938Z,6.67
2018-02-19T04:41:18.404Z,6.73
2018-02-19T04:41:58.963Z,6.59
2018-02-19T04:42:39.515Z,6.64
2018-02-19T04:43:20.059Z,6.67
2018-02-19T04:44:00.580Z,6.67
2018-02-19T04:44:41.105Z,6.7
2018-02-19T04:45:21.670Z,6.76
2018-02-19T04:46:02.171Z,6.74
2018-02-19T04:46:42.694Z,6.76
2018-02-19T04:47:23.244Z,6.84
2018-02-19T04:48:03.749Z,6.84
2018-02-19T04:48:44.277Z,6.76
2018-02-19T04:49:24.808Z,6.8
2018-02-19T04:50:05.365Z,6.84
2018-02-19T04:50:45.930Z,6.8
2018-02-19T04:51:26.447Z,6.85
2018-02-19T04:52:06.996Z,6.81
2018-02-19T04:52:47.584Z,6.77
2018-02-19T04:53:28.063Z,6.74
2018-02-19T04:54:08.567Z,6.7
2018-02-19T04:54:49.096Z,6.79
2018-02-19T04:55:29.625Z,6.76
2018-02-19T04:56:10.136Z,6.64
2018-02-19T04:56:50.661Z,6.67
2018-02-19T04:57:31.202Z,6.61
2018-02-19T04:58:11.751Z,6.61
2018-02-19T04:58:52.319Z,6.58
2018-02-19T04:59:32.846Z,6.48
2018-02-19T05:00:13.338Z,6.49
2018-02-19T05:00:53.900Z,6.58
2018-02-19T05:01:34.409Z,6.61
2018-02-19T05:02:15.074Z,6.64
2018-02-19T05:02:55.612Z,6.62
2018-02-19T05:03:36.196Z,6.62
2018-02-19T05:04:16.716Z,6.62
2018-02-19T05:04:57.347Z,6.73
2018-02-19T05:05:37.894Z,6.62
2018-02-19T05:06:18.408Z,6.66
2018-02-19T05:06:58.944Z,6.69
2018-02-19T05:07:39.475Z,6.73
2018-02-19T05:08:20.009Z,6.8
2018-02-19T05:09:00.567Z,6.69
2018-02-19T05:09:41.062Z,6.64
2018-02-19T05:10:21.588Z,6.49
2018-02-19T05:11:02.122Z,6.55
2018-02-19T05:11:42.673Z,6.44
2018-02-19T05:12:23.223Z,6.46
2018-02-19T05:13:03.770Z,6.46
2018-02-19T05:13:44.286Z,6.44
2018-02-19T05:14:24.771Z,6.48
2018-02-19T05:15:05.344Z,6.48
2018-02-19T05:15:45.835Z,6.56
2018-02-19T05:16:26.403Z,6.58
2018-02-19T05:17:06.936Z,6.58
2018-02-19T05:17:47.458Z,6.64
2018-02-19T05:18:27.954Z,6.54
2018-02-19T05:19:08.495Z,6.58
2018-02-19T05:19:49.045Z,6.54
2018-02-19T05:20:29.539Z,6.58
2018-02-19T05:21:10.077Z,6.62
2018-02-19T05:21:50.663Z,6.64
2018-02-19T05:22:31.196Z,6.62
2018-02-19T05:23:11.754Z,6.62
2018-02-19T05:23:52.316Z,6.62
2018-02-19T05:24:32.860Z,6.59
2018-02-19T05:25:13.396Z,6.64
2018-02-19T05:25:53.959Z,6.4
2018-02-19T05:26:34.520Z,6.37
2018-02-19T05:27:15.080Z,6.36
2018-02-19T05:27:55.615Z,6.41
2018-02-19T05:28:36.229Z,6.43
2018-02-19T05:29:16.784Z,6.56
2018-02-19T05:29:57.352Z,6.46
2018-02-19T05:30:37.911Z,6.54
2018-02-19T05:31:18.468Z,6.49
2018-02-19T05:31:59.037Z,6.44
2018-02-19T05:32:39.578Z,6.46
2018-02-19T05:33:20.132Z,6.38
2018-02-19T05:34:00.687Z,6.48
2018-02-19T05:34:41.233Z,6.46
2018-02-19T05:35:21.784Z,6.44
2018-02-19T05:36:02.335Z,6.49
2018-02-19T05:36:42.884Z,6.56
2018-02-19T05:37:23.440Z,6.54
2018-02-19T05:38:04.030Z,6.44
2018-02-19T05:38:44.594Z,6.4
2018-02-19T05:39:25.162Z,6.38
2018-02-19T05:40:05.732Z,6.44
2018-02-19T05:40:46.259Z,6.43
2018-02-19T05:41:26.806Z,6.43
2018-02-19T05:42:07.381Z,6.49
2018-02-19T05:42:47.929Z,6.54
2018-02-19T05:43:28.480Z,6.36
2018-02-19T05:44:09.878Z,6.4
2018-02-19T05:44:50.530Z,6.51
2018-02-19T05:45:31.017Z,6.51
2018-02-19T05:46:11.623Z,6.58
2018-02-19T05:46:52.148Z,6.44
2018-02-19T05:47:32.741Z,6.54
2018-02-19T05:48:13.263Z,6.51
2018-02-19T05:48:53.842Z,6.58
2018-02-19T05:49:34.374Z,6.54
2018-02-19T05:50:14.933Z,6.59
2018-02-19T05:50:55.464Z,6.56
2018-02-19T05:51:36.029Z,6.61
2018-02-19T05:52:16.596Z,6.74
2018-02-19T05:52:57.163Z,6.71
2018-02-19T05:53:37.749Z,6.79
2018-02-19T05:54:18.293Z,6.79
2018-02-19T05:54:58.982Z,6.74
2018-02-19T05:55:39.543Z,6.73
2018-02-19T05:56:20.093Z,6.66
2018-02-19T05:57:00.651Z,6.64
2018-02-19T05:57:41.240Z,6.67
2018-02-19T05:58:21.792Z,6.7
2018-02-19T05:59:02.354Z,6.67
2018-02-19T05:59:42.932Z,6.74
2018-02-19T06:00:23.489Z,6.71
2018-02-19T06:01:04.112Z,6.59
2018-02-19T06:01:44.678Z,6.56
2018-02-19T06:02:25.239Z,6.61
2018-02-19T06:03:05.793Z,6.56
2018-02-19T06:03:46.357Z,6.51
2018-02-19T06:04:26.934Z,6.62
2018-02-19T06:05:07.446Z,6.54
2018-02-19T06:05:47.997Z,6.44
2018-02-19T06:06:28.549Z,6.4
2018-02-19T06:07:09.120Z,6.46
2018-02-19T06:07:49.674Z,6.49
2018-02-19T06:08:30.264Z,6.43
2018-02-19T06:09:10.821Z,6.48
2018-02-19T06:09:51.590Z,6.58
2018-02-19T06:10:32.202Z,6.67
2018-02-19T06:11:12.719Z,6.64
2018-02-19T06:11:53.449Z,6.67
2018-02-19T06:12:33.973Z,6.71
2018-02-19T06:13:14.544Z,6.71
2018-02-19T06:13:55.118Z,6.66
2018-02-19T06:14:35.689Z,6.79
2018-02-19T06:15:16.256Z,6.77
2018-02-19T06:15:56.801Z,6.71
2018-02-19T06:16:37.414Z,6.49
2018-02-19T06:17:17.963Z,6.52
2018-02-19T06:17:58.529Z,6.56
2018-02-19T06:18:39.148Z,6.67
2018-02-19T06:19:19.657Z,6.76
2018-02-19T06:20:00.221Z,6.77
2018-02-19T06:20:41.030Z,6.81
2018-02-19T06:21:21.744Z,6.8
2018-02-19T06:22:02.279Z,6.85
2018-02-19T06:22:42.838Z,6.79
2018-02-19T06:23:23.389Z,6.71
2018-02-19T06:24:03.928Z,6.76
2018-02-19T06:24:44.491Z,6.67
2018-02-19T06:25:25.044Z,6.71
2018-02-19T06:26:05.602Z,6.67
2018-02-19T06:26:46.172Z,6.62
2018-02-19T06:27:26.993Z,6.58
2018-02-19T06:28:07.393Z,6.49
2018-02-19T06:28:47.968Z,6.49
2018-02-19T06:29:28.531Z,6.49
2018-02-19T06:30:09.166Z,6.56
2018-02-19T06:30:49.726Z,6.46
2018-02-19T06:31:30.272Z,6.48
2018-02-19T06:32:10.785Z,6.44
2018-02-19T06:32:51.345Z,6.4
2018-02-19T06:33:31.897Z,6.46
2018-02-19T06:34:12.466Z,6.46
2018-02-19T06:34:53.026Z,6.41
2018-02-19T06:35:33.601Z,6.41
2018-02-19T06:36:14.123Z,6.48
2018-02-19T06:36:54.689Z,6.51
2018-02-19T06:37:35.232Z,6.56
2018-02-19T06:38:15.816Z,6.4
2018-02-19T06:38:56.378Z,6.44
2018-02-19T06:39:36.946Z,6.49
2018-02-19T06:40:17.499Z,6.55
2018-02-19T06:40:58.044Z,6.52
2018-02-19T06:41:38.623Z,6.46
2018-02-19T06:42:19.253Z,6.52
2018-02-19T06:42:59.799Z,6.54
2018-02-19T06:43:40.364Z,6.58
2018-02-19T06:44:20.912Z,6.61
2018-02-19T06:45:01.472Z,6.58
2018-02-19T06:45:42.014Z,6.61
2018-02-19T06:46:22.623Z,6.59
2018-02-19T06:47:03.191Z,6.67
2018-02-19T06:47:43.728Z,6.59
2018-02-19T06:48:24.358Z,6.64
2018-02-19T06:49:04.972Z,6.56
2018-02-19T06:49:45.524Z,6.67
2018-02-19T06:50:26.085Z,6.64
2018-02-19T06:51:06.663Z,6.55
2018-02-19T06:51:47.257Z,6.59
2018-02-19T06:52:27.757Z,6.67
2018-02-19T06:53:08.318Z,6.61
2018-02-19T06:53:48.871Z,6.66
2018-02-19T06:54:29.422Z,6.54
2018-02-19T06:55:10.010Z,6.59
2018-02-19T06:55:50.547Z,6.67
2018-02-19T06:56:31.100Z,6.64
2018-02-19T06:57:11.652Z,6.59
2018-02-19T06:57:52.225Z,6.56
2018-02-19T06:58:32.779Z,6.58
2018-02-19T06:59:13.342Z,6.59
2018-02-19T06:59:53.906Z,6.62
2018-02-19T07:00:34.479Z,6.62
2018-02-19T07:01:15.280Z,6.67
2018-02-19T07:01:55.846Z,6.67
2018-02-19T07:02:36.410Z,6.77
2018-02-19T07:03:16.973Z,6.71
2018-02-19T07:03:57.560Z,6.66
2018-02-19T07:04:38.113Z,6.64
2018-02-19T07:05:19.229Z,6.64
2018-02-19T07:05:59.824Z,6.56
2018-02-19T07:06:40.366Z,6.62
2018-02-19T07:07:21.136Z,6.58
2018-02-19T07:08:01.723Z,6.59
2018-02-19T07:08:42.282Z,6.8
2018-02-19T07:09:22.850Z,6.76
2018-02-19T07:10:03.405Z,6.79
2018-02-19T07:10:43.963Z,6.79
2018-02-19T07:11:24.512Z,6.77
2018-02-19T07:12:05.100Z,6.76
2018-02-19T07:12:45.702Z,6.81
2018-02-19T07:13:26.261Z,6.77
2018-02-19T07:14:06.848Z,6.79
2018-02-19T07:14:47.396Z,6.64
2018-02-19T07:15:27.949Z,6.67
2018-02-19T07:16:08.508Z,6.79
2018-02-19T07:16:49.074Z,6.69
2018-02-19T07:17:29.604Z,6.61
2018-02-19T07:18:11.081Z,6.49
2018-02-19T07:18:51.665Z,6.54
2018-02-19T07:19:32.225Z,6.46
2018-02-19T07:20:12.784Z,6.38
2018-02-19T07:20:53.329Z,6.43
2018-02-19T07:21:33.898Z,6.46
2018-02-19T07:22:14.449Z,6.31
2018-02-19T07:22:55.320Z,6.31
2018-02-19T07:23:35.932Z,6.46
2018-02-19T07:24:16.512Z,6.43
2018-02-19T07:24:57.056Z,6.4
2018-02-19T07:25:37.601Z,6.36
2018-02-19T07:26:18.181Z,6.44
2018-02-19T07:26:58.735Z,6.44
2018-02-19T07:27:39.286Z,6.55
2018-02-19T07:28:19.884Z,6.66
2018-02-19T07:29:00.476Z,6.67
2018-02-19T07:29:41.054Z,6.79
2018-02-19T07:30:21.672Z,7.05
2018-02-19T07:31:02.219Z,6.99
2018-02-19T07:31:42.780Z,7.02
2018-02-19T07:32:23.387Z,7.09
2018-02-19T07:33:03.940Z,7.06
2018-02-19T07:33:44.521Z,7.23
2018-02-19T07:34:25.454Z,7.21
2018-02-19T07:35:06.029Z,7.2
2018-02-19T07:35:46.637Z,7.48
2018-02-19T07:36:27.215Z,7.21
2018-02-19T07:37:07.807Z,7.06
2018-02-19T07:37:48.355Z,7.07
2018-02-19T07:38:28.901Z,7.2
2018-02-19T07:39:09.468Z,7.1
2018-02-19T07:39:50.056Z,7.23
2018-02-19T07:40:30.600Z,7.07
2018-02-19T07:41:11.160Z,7.06
2018-02-19T07:41:51.720Z,7.09
2018-02-19T07:42:32.299Z,7.32
2018-02-19T07:43:13.107Z,7.24
2018-02-19T07:43:53.835Z,7.06
2018-02-19T07:44:34.387Z,7.09
2018-02-19T07:45:15.166Z,7.13
2018-02-19T07:45:55.729Z,7.16
2018-02-19T07:46:36.339Z,7.17
2018-02-19T07:47:16.961Z,7.27
2018-02-19T07:47:57.459Z,7.24
2018-02-19T07:48:38.013Z,7.31
2018-02-19T07:49:18.593Z,7.3
2018-02-19T07:49:59.141Z,7.39
2018-02-19T07:50:39.725Z,7.16
2018-02-19T07:51:20.339Z,7.27
2018-02-19T07:52:00.897Z,7.32
2018-02-19T07:52:41.397Z,7.39
2018-02-19T07:53:21.911Z,7.4
2018-02-19T07:54:02.475Z,7.35
2018-02-19T07:54:43.014Z,7.43
2018-02-19T07:55:23.494Z,7.3
2018-02-19T07:56:04.044Z,7.23
2018-02-19T07:56:44.657Z,7.27
2018-02-19T07:57:25.219Z,7.27
2018-02-19T07:58:05.789Z,7.34
2018-02-19T07:58:46.346Z,7.35
2018-02-19T07:59:27.105Z,7.46
2018-02-19T08:00:07.756Z,7.39
2018-02-19T08:00:48.275Z,7.49
2018-02-19T08:01:28.804Z,7.43
2018-02-19T08:02:09.368Z,7.4
2018-02-19T08:02:49.924Z,7.21
2018-02-19T08:03:30.482Z,7.3
2018-02-19T08:04:11.045Z,7.3
2018-02-19T08:04:51.596Z,7.32
2018-02-19T08:05:32.178Z,7.39
2018-02-19T08:06:12.755Z,7.4
2018-02-19T08:06:53.264Z,7.31
2018-02-19T08:07:33.793Z,7.46
2018-02-19T08:08:14.339Z,7.45
2018-02-19T08:08:54.878Z,7.34
2018-02-19T08:09:35.687Z,7.35
2018-02-19T08:10:16.242Z,7.3
2018-02-19T08:10:56.818Z,7.25
2018-02-19T08:11:37.380Z,7.13
2018-02-19T08:12:17.935Z,7.23
2018-02-19T08:12:58.510Z,7.3
2018-02-19T08:13:39.075Z,7.31
2018-02-19T08:14:19.629Z,7.45
2018-02-19T08:15:00.173Z,7.46
2018-02-19T08:15:40.725Z,7.39
2018-02-19T08:16:21.312Z,7.3
2018-02-19T08:17:01.862Z,7.31
2018-02-19T08:17:42.413Z,7.27
2018-02-19T08:18:22.974Z,7.27
2018-02-19T08:19:03.708Z,7.3
2018-02-19T08:19:44.215Z,7.34
2018-02-19T08:20:24.768Z,7.2
2018-02-19T08:21:05.448Z,7.27
2018-02-19T08:21:46.016Z,7.86
2018-02-19T08:22:26.676Z,7.72
2018-02-19T08:23:07.241Z,7.86
2018-02-19T08:23:47.789Z,8.18
2018-02-19T08:24:28.342Z,7.87
2018-02-19T08:25:08.913Z,7.9
2018-02-19T08:25:49.490Z,8.23
2018-02-19T08:26:30.059Z,8.01
2018-02-19T08:27:10.615Z,7.55
2018-02-19T08:27:51.156Z,7.48
2018-02-19T08:28:31.727Z,7.3
2018-02-19T08:29:12.277Z,7.4
2018-02-19T08:29:52.797Z,7.39
2018-02-19T08:30:33.367Z,7.39
2018-02-19T08:31:13.978Z,7.4
2018-02-19T08:31:54.544Z,7.4
2018-02-19T08:32:35.138Z,7.46
2018-02-19T08:33:15.686Z,7.67
2018-02-19T08:33:56.258Z,7.93
2018-02-19T08:34:36.849Z,8.07
2018-02-19T08:35:17.380Z,8.02
2018-02-19T08:35:57.943Z,8.07
2018-02-19T08:36:38.520Z,8.23
2018-02-19T08:37:19.072Z,8.07
2018-02-19T08:37:59.642Z,8.05
2018-02-19T08:38:40.214Z,8.05
2018-02-19T08:39:20.812Z,8.01
2018-02-19T08:40:01.382Z,8.05
2018-02-19T08:40:42.125Z,8.02
2018-02-19T08:41:22.677Z,8.05
2018-02-19T08:42:03.245Z,8.01
2018-02-19T08:42:43.805Z,7.92
2018-02-19T08:43:24.331Z,7.79
2018-02-19T08:44:05.012Z,7.52
2018-02-19T08:44:45.574Z,7.52
2018-02-19T08:45:26.140Z,7.52
2018-02-19T08:46:06.797Z,7.52
2018-02-19T08:46:47.368Z,7.53
2018-02-19T08:47:27.954Z,7.52
2018-02-19T08:48:08.530Z,7.68
2018-02-19T08:48:49.109Z,7.87
2018-02-19T08:49:29.767Z,7.95
2018-02-19T08:50:10.248Z,8.1
2018-02-19T08:50:50.805Z,8.11
2018-02-19T08:51:31.383Z,8.07
2018-02-19T08:52:11.931Z,8.07
2018-02-19T08:52:52.525Z,8
2018-02-19T08:53:33.065Z,8.04
2018-02-19T08:54:13.646Z,7.92
2018-02-19T08:54:54.203Z,8.04
2018-02-19T08:55:34.788Z,7.86
2018-02-19T08:56:15.341Z,7.69
2018-02-19T08:56:55.903Z,7.53
2018-02-19T08:57:36.510Z,7.68
2018-02-19T08:58:17.063Z,7.68
2018-02-19T08:58:57.606Z,7.74
2018-02-19T08:59:38.185Z,7.69
2018-02-19T09:00:18.792Z,7.85
2018-02-19T09:00:59.385Z,7.8
2018-02-19T09:01:39.939Z,7.79
2018-02-19T09:02:20.591Z,7.9